Aquilla, Alabama
Current Conditions -  °F | °C
As of 8:58 AM on Saturday 25 Oct 2014 (Local Time) from KMEI Reporting Station
Clear Clear  
Wind Chill: 12°   Ceiling: Unl
Heat Index: 12°   Visibility: 10mi
Dew Point:   Wind: 0mph
Humidity: 80%   Direction: NA
Pressure: 30.16"   Gusts: NA
Location:  31.6272°N, 88.354°W
Report Text: KMEI 251358Z 00000KT 10SM CLR 12/09 A3016 RMK AO2 SLP211 T01220089
Loading
Personal Weather Stations






























Interactive Weather Map New forecast layout! Learn more

10-Day Weather Forecast

Advertisements
Track Severe Weather on mobile